createdAt,value
2018-01-08T00:00:45.030Z,0
2018-01-08T00:01:44.906Z,0
2018-01-08T00:02:44.754Z,0
2018-01-08T00:03:44.983Z,0
2018-01-08T00:04:45.048Z,0
2018-01-08T00:05:45.030Z,0
2018-01-08T00:06:45.382Z,0
2018-01-08T00:07:45.440Z,0
2018-01-08T00:08:45.999Z,0
2018-01-08T00:09:45.353Z,0
2018-01-08T00:10:45.775Z,0
2018-01-08T00:11:46.271Z,0
2018-01-08T00:12:46.187Z,0
2018-01-08T00:13:46.156Z,0
2018-01-08T00:14:46.322Z,0
2018-01-08T00:15:46.517Z,0
2018-01-08T00:16:47.338Z,0
2018-01-08T00:17:46.811Z,0
2018-01-08T00:18:46.903Z,0
2018-01-08T00:19:46.842Z,0
2018-01-08T00:20:46.735Z,0
2018-01-08T00:21:47.353Z,0
2018-01-08T00:22:46.859Z,0
2018-01-08T00:23:47.313Z,0
2018-01-08T00:24:47.779Z,0
2018-01-08T00:25:47.985Z,0
2018-01-08T00:26:47.731Z,0
2018-01-08T00:27:48.534Z,0
2018-01-08T00:28:47.927Z,0
2018-01-08T00:29:47.934Z,0
2018-01-08T00:30:48.380Z,0
2018-01-08T00:31:48.777Z,0
2018-01-08T00:32:49.165Z,0
2018-01-08T00:33:48.976Z,0
2018-01-08T00:34:49.564Z,0
2018-01-08T00:35:49.898Z,0
2018-01-08T00:36:50.871Z,0
2018-01-08T00:37:50.454Z,0
2018-01-08T00:38:51.592Z,0
2018-01-08T00:39:50.007Z,0
2018-01-08T00:40:49.854Z,0
2018-01-08T00:41:49.560Z,0
2018-01-08T00:42:50.564Z,0
2018-01-08T00:43:50.114Z,0
2018-01-08T00:44:50.779Z,0
2018-01-08T00:45:50.798Z,0
2018-01-08T00:46:50.804Z,0
2018-01-08T00:47:51.001Z,0
2018-01-08T00:48:50.949Z,0
2018-01-08T00:49:50.734Z,0
2018-01-08T00:50:51.375Z,0
2018-01-08T00:51:50.687Z,0
2018-01-08T00:52:52.444Z,0
2018-01-08T00:53:51.092Z,0
2018-01-08T00:54:52.569Z,0
2018-01-08T00:55:52.293Z,0
2018-01-08T00:56:52.047Z,0
2018-01-08T00:57:52.440Z,0
2018-01-08T00:58:52.415Z,0
2018-01-08T00:59:52.041Z,0
2018-01-08T01:00:52.438Z,0
2018-01-08T01:01:52.416Z,0
2018-01-08T01:03:07.001Z,0
2018-01-08T01:03:52.923Z,0
2018-01-08T01:04:52.298Z,0
2018-01-08T01:06:06.390Z,0
2018-01-08T01:06:53.319Z,0
2018-01-08T01:07:53.039Z,0
2018-01-08T01:08:53.092Z,0
2018-01-08T01:09:52.679Z,0
2018-01-08T01:10:53.191Z,0
2018-01-08T01:11:51.798Z,0
2018-01-08T01:12:53.114Z,0
2018-01-08T01:13:51.837Z,0
2018-01-08T01:14:53.363Z,0
2018-01-08T01:15:52.611Z,0
2018-01-08T01:16:53.132Z,0
2018-01-08T01:17:53.374Z,0
2018-01-08T01:18:51.386Z,0
2018-01-08T01:19:51.207Z,0
2018-01-08T01:20:51.222Z,0
2018-01-08T01:21:51.759Z,0
2018-01-08T01:22:51.658Z,0
2018-01-08T01:23:51.167Z,0
2018-01-08T01:24:51.985Z,0
2018-01-08T01:25:51.554Z,0
2018-01-08T01:26:52.830Z,0
2018-01-08T01:27:53.932Z,0
2018-01-08T01:28:52.450Z,0
2018-01-08T01:29:53.359Z,0
2018-01-08T01:30:54.529Z,0
2018-01-08T01:31:54.589Z,0
2018-01-08T01:32:54.254Z,0
2018-01-08T01:33:53.975Z,0
2018-01-08T01:34:53.601Z,0
2018-01-08T01:35:53.647Z,0
2018-01-08T01:36:52.974Z,0
2018-01-08T01:37:53.259Z,0
2018-01-08T01:38:52.442Z,0
2018-01-08T01:39:52.686Z,0
2018-01-08T01:40:52.879Z,0
2018-01-08T01:41:53.062Z,0
2018-01-08T01:42:53.181Z,0
2018-01-08T01:43:52.251Z,0
2018-01-08T01:44:52.780Z,0
2018-01-08T01:45:53.085Z,0
2018-01-08T01:46:52.756Z,0
2018-01-08T01:47:53.514Z,0
2018-01-08T01:48:53.221Z,0
2018-01-08T01:49:53.022Z,0
2018-01-08T01:50:53.085Z,0
2018-01-08T01:51:53.328Z,0
2018-01-08T01:52:53.372Z,0
2018-01-08T01:53:53.749Z,0
2018-01-08T01:54:53.803Z,0
2018-01-08T01:55:54.154Z,0
2018-01-08T01:56:54.845Z,0
2018-01-08T01:57:54.953Z,0
2018-01-08T01:58:54.276Z,0
2018-01-08T01:59:54.036Z,0
2018-01-08T02:00:53.708Z,0
2018-01-08T02:01:54.273Z,0
2018-01-08T02:02:54.045Z,0
2018-01-08T02:03:54.241Z,0
2018-01-08T02:04:54.458Z,0
2018-01-08T02:05:54.423Z,0
2018-01-08T02:06:55.746Z,0
2018-01-08T02:07:54.250Z,0
2018-01-08T02:08:54.558Z,0
2018-01-08T02:09:54.352Z,0
2018-01-08T02:10:54.519Z,0
2018-01-08T02:11:54.694Z,0
2018-01-08T02:12:55.124Z,0
2018-01-08T02:13:55.683Z,0
2018-01-08T02:14:56.167Z,0
2018-01-08T02:15:56.258Z,0
2018-01-08T02:16:55.966Z,0
2018-01-08T02:17:56.010Z,0
2018-01-08T02:18:55.904Z,0
2018-01-08T02:19:55.963Z,0
2018-01-08T02:20:56.648Z,0
2018-01-08T02:21:56.343Z,0
2018-01-08T02:22:56.441Z,0
2018-01-08T02:23:56.170Z,0
2018-01-08T02:24:56.672Z,0
2018-01-08T02:25:56.158Z,0
2018-01-08T02:26:56.469Z,0
2018-01-08T02:27:58.098Z,0
2018-01-08T02:28:56.902Z,0
2018-01-08T02:29:57.420Z,0
2018-01-08T02:30:57.077Z,0
2018-01-08T02:32:46.393Z,0
2018-01-08T02:33:02.616Z,0
2018-01-08T02:34:02.612Z,0
2018-01-08T02:35:02.101Z,0
2018-01-08T02:36:02.825Z,0
2018-01-08T02:37:02.917Z,0
2018-01-08T02:38:02.947Z,0
2018-01-08T02:39:03.318Z,0
2018-01-08T02:40:03.175Z,0
2018-01-08T02:41:03.714Z,0
2018-01-08T02:42:03.876Z,0
2018-01-08T02:43:03.741Z,0
2018-01-08T02:44:04.199Z,0
2018-01-08T02:45:04.707Z,0
2018-01-08T02:46:04.867Z,0
2018-01-08T02:47:04.869Z,0
2018-01-08T02:48:04.895Z,0
2018-01-08T02:49:05.040Z,0
2018-01-08T02:50:05.526Z,0
2018-01-08T02:51:05.719Z,0
2018-01-08T02:52:05.860Z,0
2018-01-08T02:53:05.727Z,0
2018-01-08T02:54:06.584Z,0
2018-01-08T02:55:06.560Z,0
2018-01-08T02:56:06.584Z,0
2018-01-08T02:57:06.963Z,0
2018-01-08T02:58:06.986Z,0
2018-01-08T02:59:07.022Z,0
2018-01-08T03:00:21.633Z,0
2018-01-08T03:01:06.772Z,0
2018-01-08T03:02:07.054Z,0
2018-01-08T03:03:06.567Z,0
2018-01-08T03:04:06.562Z,0
2018-01-08T03:05:07.014Z,0
2018-01-08T03:06:07.135Z,0
2018-01-08T03:07:07.161Z,0
2018-01-08T03:08:06.924Z,0
2018-01-08T03:09:07.054Z,0
2018-01-08T03:10:07.789Z,0
2018-01-08T03:11:07.461Z,0
2018-01-08T03:12:07.583Z,0
2018-01-08T03:13:07.741Z,0
2018-01-08T03:14:08.145Z,0
2018-01-08T03:15:08.191Z,0
2018-01-08T03:16:08.074Z,0
2018-01-08T03:17:08.115Z,0
2018-01-08T03:18:08.688Z,0
2018-01-08T03:19:08.560Z,0
2018-01-08T03:20:08.710Z,0
2018-01-08T03:21:09.382Z,0
2018-01-08T03:22:08.794Z,0
2018-01-08T03:23:09.547Z,0
2018-01-08T03:24:10.174Z,0
2018-01-08T03:25:10.016Z,0
2018-01-08T03:26:09.975Z,0
2018-01-08T03:27:09.840Z,0
2018-01-08T03:28:10.628Z,0
2018-01-08T03:29:10.657Z,0
2018-01-08T03:30:10.439Z,0
2018-01-08T03:31:10.390Z,0
2018-01-08T03:32:10.413Z,0
2018-01-08T03:33:10.994Z,0
2018-01-08T03:34:10.946Z,0
2018-01-08T03:35:11.196Z,0
2018-01-08T03:36:11.303Z,0
2018-01-08T03:37:11.673Z,0
2018-01-08T03:38:11.163Z,0
2018-01-08T03:39:11.428Z,0
2018-01-08T03:40:11.986Z,0
2018-01-08T03:41:11.501Z,0
2018-01-08T03:42:11.905Z,0
2018-01-08T03:43:12.104Z,0
2018-01-08T03:44:12.317Z,0
2018-01-08T03:45:11.914Z,0
2018-01-08T03:46:12.613Z,0
2018-01-08T03:47:12.441Z,0
2018-01-08T03:48:12.594Z,0
2018-01-08T03:49:12.707Z,0
2018-01-08T03:50:13.381Z,0
2018-01-08T03:51:13.419Z,0
2018-01-08T03:52:13.961Z,0
2018-01-08T03:53:13.715Z,0
2018-01-08T03:54:13.584Z,0
2018-01-08T03:55:14.379Z,0
2018-01-08T03:56:14.753Z,0
2018-01-08T03:57:14.581Z,0
2018-01-08T03:58:14.870Z,0
2018-01-08T03:59:15.037Z,0
2018-01-08T04:00:29.982Z,0
2018-01-08T04:01:30.116Z,0
2018-01-08T04:02:30.556Z,0
2018-01-08T04:03:30.480Z,0
2018-01-08T04:04:30.450Z,0
2018-01-08T04:05:30.075Z,0
2018-01-08T04:06:30.376Z,0
2018-01-08T04:07:30.725Z,0
2018-01-08T04:08:30.245Z,0
2018-01-08T04:09:30.286Z,0
2018-01-08T04:10:30.770Z,0
2018-01-08T04:11:31.188Z,0
2018-01-08T04:12:30.922Z,0
2018-01-08T04:13:30.818Z,0
2018-01-08T04:14:31.277Z,0
2018-01-08T04:15:31.783Z,0
2018-01-08T04:16:31.475Z,0
2018-01-08T04:17:31.861Z,0
2018-01-08T04:18:32.328Z,0
2018-01-08T04:19:31.922Z,0
2018-01-08T04:20:32.357Z,0
2018-01-08T04:21:32.140Z,0
2018-01-08T04:22:32.314Z,0
2018-01-08T04:23:32.622Z,0
2018-01-08T04:24:33.345Z,0
2018-01-08T04:25:33.302Z,0
2018-01-08T04:26:33.433Z,0
2018-01-08T04:27:33.532Z,0
2018-01-08T04:28:34.115Z,0
2018-01-08T04:29:34.202Z,0
2018-01-08T04:30:33.957Z,0
2018-01-08T04:31:34.090Z,0
2018-01-08T04:32:34.154Z,0
2018-01-08T04:33:34.514Z,0
2018-01-08T04:34:35.387Z,0
2018-01-08T04:35:37.173Z,0
2018-01-08T04:36:37.137Z,0
2018-01-08T04:37:35.644Z,0
2018-01-08T04:38:38.362Z,0
2018-01-08T04:39:36.939Z,0
2018-01-08T04:40:37.648Z,0
2018-01-08T04:41:37.641Z,0
2018-01-08T04:42:37.050Z,0
2018-01-08T04:43:37.841Z,0
2018-01-08T04:44:37.406Z,0
2018-01-08T04:45:35.959Z,0
2018-01-08T04:46:36.255Z,0
2018-01-08T04:47:36.799Z,0
2018-01-08T04:48:36.791Z,0
2018-01-08T04:49:37.314Z,0
2018-01-08T04:50:36.682Z,0
2018-01-08T04:51:37.639Z,0
2018-01-08T04:52:37.505Z,0
2018-01-08T04:53:37.461Z,0
2018-01-08T04:54:37.497Z,0
2018-01-08T04:55:37.471Z,0
2018-01-08T04:56:37.640Z,0
2018-01-08T04:57:36.996Z,0
2018-01-08T04:58:37.279Z,0
2018-01-08T04:59:37.520Z,0
2018-01-08T05:00:40.023Z,0
2018-01-08T05:01:38.799Z,0
2018-01-08T05:02:38.854Z,0
2018-01-08T05:03:38.587Z,0
2018-01-08T05:04:39.006Z,0
2018-01-08T05:05:39.648Z,0
2018-01-08T05:06:39.421Z,0
2018-01-08T05:07:39.859Z,0
2018-01-08T05:08:41.508Z,0
2018-01-08T05:09:40.632Z,0
2018-01-08T05:10:39.931Z,0
2018-01-08T05:11:40.483Z,0
2018-01-08T05:12:40.740Z,0
2018-01-08T05:13:40.954Z,0
2018-01-08T05:14:40.278Z,0
2018-01-08T05:15:41.711Z,0
2018-01-08T05:16:41.696Z,0
2018-01-08T05:17:41.790Z,0
2018-01-08T05:18:42.164Z,0
2018-01-08T05:19:40.856Z,0
2018-01-08T05:20:40.446Z,0
2018-01-08T05:21:41.004Z,0
2018-01-08T05:22:41.194Z,0
2018-01-08T05:23:41.152Z,0
2018-01-08T05:24:41.052Z,0
2018-01-08T05:25:40.896Z,0
2018-01-08T05:26:42.039Z,0
2018-01-08T05:27:41.717Z,0
2018-01-08T05:28:40.557Z,0
2018-01-08T05:29:40.846Z,0
2018-01-08T05:30:41.144Z,0
2018-01-08T05:31:41.633Z,0
2018-01-08T05:32:41.395Z,0
2018-01-08T05:33:42.109Z,0
2018-01-08T05:34:42.272Z,0
2018-01-08T05:35:42.136Z,0
2018-01-08T05:36:42.730Z,0
2018-01-08T05:37:42.852Z,0
2018-01-08T05:38:43.153Z,0
2018-01-08T05:39:42.683Z,0
2018-01-08T05:40:43.218Z,0
2018-01-08T05:41:43.220Z,0
2018-01-08T05:42:43.658Z,0
2018-01-08T05:43:43.487Z,0
2018-01-08T05:44:44.070Z,0
2018-01-08T05:45:43.811Z,0
2018-01-08T05:46:43.706Z,0
2018-01-08T05:47:44.238Z,0
2018-01-08T05:48:43.992Z,0
2018-01-08T05:49:44.061Z,0
2018-01-08T05:50:44.564Z,0
2018-01-08T05:51:44.508Z,0
2018-01-08T05:52:45.508Z,0
2018-01-08T05:53:44.630Z,0
2018-01-08T05:54:44.533Z,0
2018-01-08T05:55:45.573Z,0
2018-01-08T05:56:45.460Z,0
2018-01-08T05:57:45.015Z,0
2018-01-08T05:58:44.893Z,0
2018-01-08T05:59:44.945Z,0
2018-01-08T06:00:45.924Z,0
2018-01-08T06:01:45.493Z,0
2018-01-08T06:02:45.065Z,0
2018-01-08T06:03:46.295Z,0
2018-01-08T06:04:45.463Z,0
2018-01-08T06:05:45.455Z,0
2018-01-08T06:06:45.656Z,0
2018-01-08T06:07:45.525Z,0
2018-01-08T06:08:46.113Z,0
2018-01-08T06:09:46.326Z,0
2018-01-08T06:10:46.753Z,0
2018-01-08T06:11:46.518Z,0
2018-01-08T06:12:47.072Z,0
2018-01-08T06:13:46.762Z,0
2018-01-08T06:14:46.994Z,0
2018-01-08T06:15:47.327Z,0
2018-01-08T06:16:47.989Z,0
2018-01-08T06:17:47.521Z,0
2018-01-08T06:18:48.877Z,0
2018-01-08T06:19:48.265Z,0
2018-01-08T06:20:48.658Z,0
2018-01-08T06:21:48.364Z,0
2018-01-08T06:22:48.458Z,0
2018-01-08T06:23:48.351Z,0
2018-01-08T06:24:49.114Z,0
2018-01-08T06:25:48.655Z,0
2018-01-08T06:26:48.808Z,0
2018-01-08T06:27:49.004Z,0
2018-01-08T06:28:48.798Z,0
2018-01-08T06:29:49.043Z,0
2018-01-08T06:30:49.705Z,0
2018-01-08T06:31:49.582Z,0
2018-01-08T06:32:49.605Z,0
2018-01-08T06:33:50.562Z,0
2018-01-08T06:34:50.749Z,0
2018-01-08T06:35:50.520Z,0
2018-01-08T06:36:49.891Z,0
2018-01-08T06:37:50.498Z,0
2018-01-08T06:38:49.727Z,0
2018-01-08T06:39:51.435Z,0
2018-01-08T06:40:51.262Z,4
2018-01-08T06:41:52.250Z,4
2018-01-08T06:42:50.773Z,4
2018-01-08T06:43:51.645Z,0
2018-01-08T06:44:51.215Z,4
2018-01-08T06:45:52.884Z,4
2018-01-08T06:46:51.463Z,4
2018-01-08T06:47:52.028Z,8
2018-01-08T06:48:51.632Z,8
2018-01-08T06:49:51.334Z,4
2018-01-08T06:50:51.464Z,12
2018-01-08T06:51:52.109Z,12
2018-01-08T06:52:52.209Z,12
2018-01-08T06:53:52.347Z,16
2018-01-08T06:54:52.654Z,16
2018-01-08T06:55:52.815Z,20
2018-01-08T06:56:53.197Z,20
2018-01-08T06:57:53.372Z,20
2018-01-08T06:58:53.333Z,28
2018-01-08T06:59:54.151Z,28
2018-01-08T07:00:54.483Z,32
2018-01-08T07:01:54.415Z,36
2018-01-08T07:02:54.562Z,40
2018-01-08T07:03:55.042Z,48
2018-01-08T07:04:54.058Z,48
2018-01-08T07:05:54.460Z,56
2018-01-08T07:06:54.345Z,60
2018-01-08T07:07:55.317Z,68
2018-01-08T07:08:55.112Z,72
2018-01-08T07:09:55.093Z,80
2018-01-08T07:10:54.824Z,88
2018-01-08T07:11:54.912Z,96
2018-01-08T07:12:55.509Z,104
2018-01-08T07:13:55.648Z,112
2018-01-08T07:14:56.007Z,120
2018-01-08T07:15:56.357Z,128
2018-01-08T07:16:56.156Z,136
2018-01-08T07:17:56.414Z,144
2018-01-08T07:18:55.901Z,156
2018-01-08T07:19:55.679Z,164
2018-01-08T07:20:56.574Z,176
2018-01-08T07:21:56.590Z,184
2018-01-08T07:22:56.320Z,192
2018-01-08T07:23:56.528Z,204
2018-01-08T07:24:56.645Z,216
2018-01-08T07:25:56.985Z,228
2018-01-08T07:26:57.159Z,236
2018-01-08T07:27:57.397Z,252
2018-01-08T07:28:57.550Z,260
2018-01-08T07:29:57.421Z,276
2018-01-08T07:30:57.667Z,288
2018-01-08T07:31:58.085Z,304
2018-01-08T07:32:58.333Z,316
2018-01-08T07:33:58.250Z,328
2018-01-08T07:34:58.307Z,344
2018-01-08T07:35:58.724Z,360
2018-01-08T07:36:58.487Z,372
2018-01-08T07:37:58.945Z,388
2018-01-08T07:38:59.309Z,408
2018-01-08T07:40:00.641Z,420
2018-01-08T07:41:00.051Z,440
2018-01-08T07:42:00.435Z,460
2018-01-08T07:42:59.753Z,480
2018-01-08T07:44:00.621Z,500
2018-01-08T07:45:00.072Z,516
2018-01-08T07:46:00.361Z,532
2018-01-08T07:47:00.215Z,548
2018-01-08T07:48:00.477Z,560
2018-01-08T07:49:00.534Z,568
2018-01-08T07:50:01.072Z,572
2018-01-08T07:51:01.490Z,584
2018-01-08T07:52:01.245Z,592
2018-01-08T07:53:01.127Z,604
2018-01-08T07:54:01.421Z,624
2018-01-08T07:55:01.306Z,644
2018-01-08T07:56:01.772Z,656
2018-01-08T07:57:01.580Z,668
2018-01-08T07:58:01.688Z,680
2018-01-08T07:59:01.832Z,692
2018-01-08T08:01:02.485Z,728
2018-01-08T08:02:03.093Z,744
2018-01-08T08:03:02.800Z,756
2018-01-08T08:04:02.316Z,776
2018-01-08T08:05:02.662Z,788
2018-01-08T08:06:02.342Z,788
2018-01-08T08:07:02.764Z,800
2018-01-08T08:08:02.431Z,820
2018-01-08T08:09:02.644Z,832
2018-01-08T08:10:02.460Z,848
2018-01-08T08:11:02.807Z,868
2018-01-08T08:12:02.216Z,884
2018-01-08T08:13:02.486Z,908
2018-01-08T08:14:02.879Z,924
2018-01-08T08:15:02.675Z,948
2018-01-08T08:16:03.141Z,968
2018-01-08T08:17:03.087Z,1000
2018-01-08T08:18:02.755Z,1044
2018-01-08T08:19:02.414Z,1072
2018-01-08T08:20:02.992Z,1076
2018-01-08T08:21:02.511Z,1092
2018-01-08T08:22:02.578Z,1112
2018-01-08T08:23:03.840Z,1132
2018-01-08T08:24:03.031Z,1144
2018-01-08T08:25:03.258Z,1160
2018-01-08T08:26:02.819Z,1156
2018-01-08T08:27:03.816Z,1172
2018-01-08T08:28:03.606Z,1192
2018-01-08T08:29:03.318Z,1200
2018-01-08T08:30:03.394Z,1224
2018-01-08T08:31:03.288Z,1252
2018-01-08T08:32:03.555Z,1272
2018-01-08T08:33:03.309Z,1280
2018-01-08T08:34:03.392Z,1292
2018-01-08T08:35:03.848Z,1296
2018-01-08T08:36:03.428Z,1324
2018-01-08T08:37:03.412Z,1336
2018-01-08T08:38:03.800Z,1344
2018-01-08T08:39:03.954Z,1356
2018-01-08T08:40:03.812Z,1360
2018-01-08T08:41:03.820Z,1368
2018-01-08T08:42:03.248Z,1380
2018-01-08T08:43:04.181Z,1396
2018-01-08T08:44:04.206Z,1396
2018-01-08T08:45:04.596Z,1404
2018-01-08T08:46:09.753Z,1408
2018-01-08T08:47:10.248Z,1420
2018-01-08T08:48:09.979Z,1420
2018-01-08T08:49:09.795Z,1432
2018-01-08T08:50:10.505Z,1452
2018-01-08T08:51:09.968Z,1468
2018-01-08T08:52:11.473Z,1484
2018-01-08T08:53:09.923Z,1500
2018-01-08T08:54:09.637Z,1516
2018-01-08T08:55:10.220Z,1512
2018-01-08T08:56:10.071Z,1528
2018-01-08T08:57:09.887Z,1552
2018-01-08T08:58:18.717Z,1580
2018-01-08T08:59:10.370Z,1632
2018-01-08T09:00:24.972Z,1724
2018-01-08T09:01:10.780Z,1812
2018-01-08T09:02:10.117Z,1984
2018-01-08T09:03:10.528Z,2208
2018-01-08T09:04:10.776Z,2416
2018-01-08T09:05:11.449Z,2592
2018-01-08T09:06:11.405Z,2640
2018-01-08T09:07:11.447Z,2844
2018-01-08T09:08:11.424Z,2904
2018-01-08T09:09:11.182Z,3040
2018-01-08T09:10:11.565Z,3064
2018-01-08T09:11:11.248Z,4584
2018-01-08T09:12:11.187Z,4644
2018-01-08T09:13:11.311Z,3216
2018-01-08T09:14:11.984Z,2868
2018-01-08T09:15:11.775Z,2872
2018-01-08T09:16:12.528Z,2816
2018-01-08T09:17:12.339Z,4644
2018-01-08T09:18:12.002Z,10200
2018-01-08T09:19:12.722Z,13272
2018-01-08T09:20:12.667Z,13032
2018-01-08T09:21:13.086Z,12608
2018-01-08T09:22:12.935Z,12920
2018-01-08T09:23:13.094Z,13140
2018-01-08T09:24:12.803Z,14528
2018-01-08T09:25:13.841Z,13860
2018-01-08T09:26:13.606Z,11572
2018-01-08T09:27:13.543Z,11968
2018-01-08T09:28:13.999Z,14184
2018-01-08T09:29:13.713Z,15680
2018-01-08T09:30:13.986Z,16128
2018-01-08T09:31:14.268Z,15616
2018-01-08T09:32:15.174Z,14880
2018-01-08T09:33:14.803Z,14280
2018-01-08T09:34:14.510Z,14944
2018-01-08T09:35:14.382Z,14528
2018-01-08T09:36:15.781Z,13960
2018-01-08T09:37:16.100Z,11824
2018-01-08T09:38:16.016Z,12908
2018-01-08T09:39:14.208Z,15360
2018-01-08T09:40:14.886Z,15904
2018-01-08T09:41:14.546Z,15552
2018-01-08T09:42:15.215Z,14528
2018-01-08T09:43:14.399Z,11468
2018-01-08T09:44:14.978Z,10320
2018-01-08T09:45:14.832Z,11492
2018-01-08T09:46:14.885Z,10756
2018-01-08T09:47:14.634Z,10896
2018-01-08T09:48:15.404Z,11192
2018-01-08T09:49:16.120Z,12024
2018-01-08T09:50:15.906Z,12292
2018-01-08T09:51:15.186Z,12344
2018-01-08T09:52:14.930Z,10832
2018-01-08T09:53:15.472Z,10120
2018-01-08T09:54:15.493Z,9744
2018-01-08T09:55:15.554Z,9852
2018-01-08T09:56:15.456Z,9900
2018-01-08T09:57:15.735Z,9348
2018-01-08T09:58:16.721Z,9692
2018-01-08T09:59:16.739Z,11980
2018-01-08T10:00:30.633Z,15488
2018-01-08T10:01:15.801Z,16768
2018-01-08T10:02:16.489Z,18080
2018-01-08T10:03:16.004Z,18560
2018-01-08T10:04:15.485Z,19328
2018-01-08T10:05:16.602Z,20064
2018-01-08T10:06:16.388Z,19968
2018-01-08T10:07:16.633Z,18400
2018-01-08T10:08:17.303Z,18592
2018-01-08T10:09:16.550Z,18720
2018-01-08T10:10:31.179Z,20960
2018-01-08T10:11:16.364Z,21248
2018-01-08T10:12:16.076Z,21984
2018-01-08T10:13:16.594Z,22912
2018-01-08T10:14:17.146Z,23008
2018-01-08T10:15:17.639Z,20000
2018-01-08T10:16:17.509Z,18688
2018-01-08T10:17:17.427Z,19520
2018-01-08T10:18:17.615Z,19520
2018-01-08T10:19:18.179Z,20960
2018-01-08T10:20:18.289Z,21152
2018-01-08T10:21:18.254Z,20512
2018-01-08T10:22:17.723Z,22624
2018-01-08T10:23:18.178Z,23488
2018-01-08T10:24:18.364Z,22080
2018-01-08T10:25:18.290Z,17280
2018-01-08T10:26:18.337Z,16384
2018-01-08T10:27:18.942Z,19712
2018-01-08T10:28:18.757Z,18752
2018-01-08T10:29:18.626Z,19712
2018-01-08T10:30:19.452Z,22048
2018-01-08T10:31:19.252Z,23648
2018-01-08T10:32:19.497Z,24576
2018-01-08T10:33:19.309Z,25152
2018-01-08T10:34:19.538Z,25216
2018-01-08T10:35:20.125Z,25344
2018-01-08T10:36:20.818Z,24448
2018-01-08T10:37:19.965Z,23104
2018-01-08T10:38:20.748Z,15680
2018-01-08T10:39:20.617Z,7168
2018-01-08T10:40:35.953Z,5096
2018-01-08T10:41:21.862Z,4820
2018-01-08T10:42:21.911Z,4652
2018-01-08T10:43:19.760Z,4524
2018-01-08T10:44:20.302Z,4428
2018-01-08T10:45:20.466Z,4288
2018-01-08T10:46:20.775Z,4280
2018-01-08T10:47:20.557Z,4300
2018-01-08T10:48:21.169Z,4324
2018-01-08T10:49:21.475Z,4324
2018-01-08T10:50:20.933Z,4276
2018-01-08T10:51:20.832Z,4180
2018-01-08T10:52:21.546Z,4192
2018-01-08T10:53:21.065Z,4148
2018-01-08T10:54:21.080Z,4124
2018-01-08T10:55:21.460Z,4088
2018-01-08T10:56:21.599Z,4036
2018-01-08T10:57:21.541Z,4016
2018-01-08T10:58:21.828Z,4000
2018-01-08T10:59:22.284Z,3984
2018-01-08T11:00:26.988Z,4004
2018-01-08T11:01:27.164Z,3948
2018-01-08T11:02:27.412Z,3872
2018-01-08T11:03:27.610Z,3792
2018-01-08T11:04:28.379Z,3724
2018-01-08T11:05:28.609Z,3684
2018-01-08T11:06:28.311Z,3624
2018-01-08T11:07:28.673Z,3584
2018-01-08T11:08:28.500Z,3564
2018-01-08T11:09:28.121Z,3536
2018-01-08T11:10:28.710Z,3512
2018-01-08T11:11:28.961Z,3496
2018-01-08T11:12:29.038Z,3444
2018-01-08T11:13:43.801Z,3420
2018-01-08T11:14:28.930Z,3372
2018-01-08T11:15:30.246Z,3340
2018-01-08T11:16:30.789Z,3292
2018-01-08T11:17:31.083Z,3152
2018-01-08T11:18:31.262Z,3120
2018-01-08T11:19:30.269Z,3084
2018-01-08T11:20:31.173Z,3108
2018-01-08T11:21:30.076Z,3068
2018-01-08T11:22:30.834Z,2880
2018-01-08T11:23:29.091Z,2956
2018-01-08T11:24:29.451Z,2948
2018-01-08T11:25:29.952Z,2888
2018-01-08T11:26:29.667Z,2912
2018-01-08T11:27:30.295Z,2780
2018-01-08T11:28:30.681Z,2792
2018-01-08T11:29:30.204Z,2756
2018-01-08T11:30:30.546Z,2748
2018-01-08T11:31:31.276Z,2724
2018-01-08T11:32:31.010Z,2580
2018-01-08T11:33:31.374Z,2628
2018-01-08T11:34:31.608Z,2620
2018-01-08T11:35:32.152Z,2572
2018-01-08T11:36:31.503Z,2508
2018-01-08T11:37:32.222Z,2480
2018-01-08T11:38:32.971Z,2524
2018-01-08T11:39:32.712Z,2504
2018-01-08T11:40:32.477Z,2480
2018-01-08T11:41:32.325Z,2476
2018-01-08T11:42:32.057Z,2456
2018-01-08T11:43:33.345Z,2428
2018-01-08T11:44:32.348Z,2408
2018-01-08T11:45:33.677Z,2392
2018-01-08T11:46:32.978Z,2384
2018-01-08T11:47:33.190Z,2360
2018-01-08T11:48:33.727Z,2340
2018-01-08T11:49:32.508Z,2340
2018-01-08T11:50:32.586Z,2320
2018-01-08T11:51:33.127Z,2300
2018-01-08T11:52:33.282Z,2284
2018-01-08T11:53:33.439Z,2244
2018-01-08T11:54:33.846Z,2240
2018-01-08T11:55:33.883Z,2140
2018-01-08T11:56:34.102Z,2128
2018-01-08T11:57:34.526Z,2072
2018-01-08T11:58:35.719Z,2052
2018-01-08T11:59:35.701Z,1988
2018-01-08T12:00:35.224Z,1924
2018-01-08T12:01:37.159Z,1912
2018-01-08T12:02:35.938Z,1872
2018-01-08T12:03:35.345Z,1900
2018-01-08T12:04:35.224Z,1880
2018-01-08T12:05:35.449Z,1848
2018-01-08T12:06:36.668Z,1868
2018-01-08T12:07:36.478Z,1912
2018-01-08T12:08:36.995Z,1884
2018-01-08T12:09:36.378Z,1912
2018-01-08T12:10:35.208Z,1896
2018-01-08T12:11:34.641Z,1916
2018-01-08T12:12:35.249Z,1920
2018-01-08T12:13:35.841Z,1912
2018-01-08T12:14:35.279Z,1896
2018-01-08T12:15:37.688Z,1884
2018-01-08T12:16:36.125Z,1864
2018-01-08T12:17:36.503Z,1836
2018-01-08T12:18:36.210Z,1816
2018-01-08T12:19:36.045Z,1796
2018-01-08T12:20:35.729Z,1776
2018-01-08T12:21:36.446Z,1724
2018-01-08T12:22:36.362Z,1712
2018-01-08T12:23:38.014Z,1672
2018-01-08T12:24:36.803Z,1664
2018-01-08T12:25:37.652Z,1632
2018-01-08T12:26:39.371Z,1568
2018-01-08T12:27:37.919Z,1508
2018-01-08T12:28:37.202Z,1484
2018-01-08T12:29:37.018Z,1476
2018-01-08T12:30:37.315Z,1472
2018-01-08T12:31:37.138Z,1468
2018-01-08T12:32:37.171Z,1456
2018-01-08T12:33:37.307Z,1456
2018-01-08T12:34:37.592Z,1464
2018-01-08T12:35:37.368Z,1464
2018-01-08T12:36:38.563Z,1460
2018-01-08T12:37:38.880Z,1448
2018-01-08T12:38:37.465Z,1424
2018-01-08T12:39:38.129Z,1420
2018-01-08T12:40:37.807Z,1396
2018-01-08T12:41:40.202Z,1396
2018-01-08T12:42:39.976Z,1392
2018-01-08T12:43:41.046Z,1388
2018-01-08T12:44:41.085Z,1384
2018-01-08T12:45:41.097Z,1376
2018-01-08T12:46:41.151Z,1368
2018-01-08T12:47:41.070Z,1372
2018-01-08T12:48:41.453Z,1368
2018-01-08T12:49:41.202Z,1360
2018-01-08T12:50:41.084Z,1364
2018-01-08T12:51:41.276Z,1356
2018-01-08T12:52:41.416Z,1356
2018-01-08T12:53:41.137Z,1352
2018-01-08T12:54:39.661Z,1348
2018-01-08T12:55:40.425Z,1352
2018-01-08T12:56:40.345Z,1352
2018-01-08T12:57:40.415Z,1348
2018-01-08T12:58:41.292Z,1340
2018-01-08T12:59:41.231Z,1332
2018-01-08T13:00:41.177Z,1324
2018-01-08T13:01:41.096Z,1312
2018-01-08T13:02:39.243Z,1308
2018-01-08T13:03:40.189Z,1300
2018-01-08T13:04:39.482Z,1288
2018-01-08T13:05:41.383Z,1292
2018-01-08T13:06:38.865Z,1288
2018-01-08T13:07:40.160Z,1284
2018-01-08T13:08:41.453Z,1272
2018-01-08T13:09:39.594Z,1256
2018-01-08T13:10:40.037Z,1232
2018-01-08T13:11:40.581Z,1232
2018-01-08T13:12:41.175Z,1208
2018-01-08T13:13:40.658Z,1192
2018-01-08T13:14:41.575Z,1184
2018-01-08T13:15:40.788Z,1208
2018-01-08T13:16:41.246Z,1200
2018-01-08T13:17:41.714Z,1188
2018-01-08T13:18:41.082Z,1164
2018-01-08T13:19:40.957Z,1140
2018-01-08T13:20:41.099Z,1124
2018-01-08T13:21:41.623Z,1108
2018-01-08T13:22:42.305Z,1100
2018-01-08T13:23:41.550Z,1080
2018-01-08T13:24:41.738Z,1052
2018-01-08T13:25:41.760Z,1032
2018-01-08T13:26:42.996Z,1024
2018-01-08T13:27:42.550Z,1016
2018-01-08T13:28:42.842Z,1004
2018-01-08T13:29:43.168Z,992
2018-01-08T13:30:43.388Z,980
2018-01-08T13:31:42.987Z,976
2018-01-08T13:32:43.390Z,976
2018-01-08T13:33:43.697Z,976
2018-01-08T13:34:44.008Z,968
2018-01-08T13:35:43.781Z,968
2018-01-08T13:36:43.744Z,968
2018-01-08T13:37:44.467Z,976
2018-01-08T13:38:44.665Z,968
2018-01-08T13:39:44.067Z,956
2018-01-08T13:40:44.238Z,952
2018-01-08T13:41:43.883Z,940
2018-01-08T13:42:43.360Z,940
2018-01-08T13:43:44.253Z,932
2018-01-08T13:44:43.438Z,928
2018-01-08T13:45:44.089Z,920
2018-01-08T13:46:44.242Z,900
2018-01-08T13:47:44.247Z,896
2018-01-08T13:48:44.205Z,880
2018-01-08T13:49:43.950Z,852
2018-01-08T13:50:45.292Z,852
2018-01-08T13:51:43.706Z,844
2018-01-08T13:52:44.134Z,840
2018-01-08T13:53:43.736Z,844
2018-01-08T13:54:44.469Z,836
2018-01-08T13:55:44.497Z,836
2018-01-08T13:56:44.271Z,836
2018-01-08T13:57:43.984Z,836
2018-01-08T13:58:44.639Z,828
2018-01-08T13:59:44.069Z,816
2018-01-08T14:00:44.919Z,792
2018-01-08T14:01:44.516Z,776
2018-01-08T14:02:46.336Z,768
2018-01-08T14:03:45.341Z,760
2018-01-08T14:04:45.577Z,756